createdAt,value
2023-03-24T00:01:46.921Z,12.00
2023-03-24T00:04:14.372Z,12.00
2023-03-24T00:06:41.577Z,12.00
2023-03-24T00:09:08.224Z,12.00
2023-03-24T00:11:35.003Z,12.00
2023-03-24T00:14:03.366Z,12.10
2023-03-24T00:16:30.400Z,12.10
2023-03-24T00:18:57.877Z,12.10
2023-03-24T00:21:25.625Z,12.10
2023-03-24T00:23:58.632Z,12.20
2023-03-24T00:26:25.907Z,12.20
2023-03-24T00:28:53.673Z,12.20
2023-03-24T00:31:20.747Z,12.20
2023-03-24T00:33:50.856Z,12.20
2023-03-24T00:36:20.964Z,12.20
2023-03-24T00:38:48.520Z,12.20
2023-03-24T00:41:19.683Z,12.10
2023-03-24T00:43:47.834Z,12.00
2023-03-24T00:46:29.108Z,11.90
2023-03-24T00:49:02.754Z,11.90
2023-03-24T00:51:35.274Z,11.90
2023-03-24T00:54:02.429Z,11.90
2023-03-24T00:56:31.566Z,12.00
2023-03-24T00:59:02.145Z,12.10
2023-03-24T01:01:33.040Z,12.10
2023-03-24T01:04:01.237Z,12.20
2023-03-24T01:06:28.637Z,12.20
2023-03-24T01:08:55.385Z,12.20
2023-03-24T01:11:24.317Z,12.20
2023-03-24T01:13:53.286Z,12.20
2023-03-24T01:16:22.187Z,12.20
2023-03-24T01:18:49.407Z,12.20
2023-03-24T01:21:16.300Z,12.10
2023-03-24T01:23:43.071Z,12.00
2023-03-24T01:26:10.951Z,11.80
2023-03-24T01:28:43.666Z,11.80
2023-03-24T01:31:11.157Z,11.70
2023-03-24T01:33:38.783Z,11.60
2023-03-24T01:36:06.871Z,11.50
2023-03-24T01:38:34.072Z,11.50
2023-03-24T01:41:00.768Z,11.50
2023-03-24T01:43:33.396Z,11.40
2023-03-24T01:46:15.761Z,11.40
2023-03-24T01:48:56.072Z,11.30
2023-03-24T01:51:31.673Z,11.30
2023-03-24T01:54:03.943Z,11.30
2023-03-24T01:56:36.404Z,11.20
2023-03-24T01:59:27.347Z,11.10
2023-03-24T02:02:03.752Z,11.10
2023-03-24T02:04:38.844Z,11.00
2023-03-24T02:07:29.662Z,11.00
2023-03-24T02:09:56.537Z,11.00
2023-03-24T02:12:23.312Z,11.10
2023-03-24T02:14:50.663Z,11.10
2023-03-24T02:17:25.886Z,11.00
2023-03-24T02:20:07.560Z,11.00
2023-03-24T02:23:17.134Z,11.00
2023-03-24T02:26:01.996Z,11.00
2023-03-24T02:28:28.690Z,11.00
2023-03-24T02:31:06.876Z,10.90
2023-03-24T02:33:52.118Z,10.90
2023-03-24T02:36:49.730Z,10.90
2023-03-24T02:39:52.105Z,10.90
2023-03-24T02:42:34.156Z,10.90
2023-03-24T02:45:07.821Z,10.90
2023-03-24T02:48:01.492Z,10.90
2023-03-24T02:50:35.295Z,10.80
2023-03-24T02:53:14.030Z,10.80
2023-03-24T02:55:46.421Z,10.90
2023-03-24T02:58:54.640Z,10.90
2023-03-24T03:01:32.584Z,10.90
2023-03-24T03:04:05.411Z,10.90
2023-03-24T03:06:40.295Z,11.10
2023-03-24T03:09:19.234Z,11.20
2023-03-24T03:11:49.681Z,11.20
2023-03-24T03:14:39.968Z,11.10
2023-03-24T03:17:19.623Z,11.00
2023-03-24T03:19:53.233Z,11.10
2023-03-24T03:22:26.151Z,11.10
2023-03-24T03:24:56.034Z,11.10
2023-03-24T03:27:39.191Z,11.10
2023-03-24T03:30:22.538Z,11.20
2023-03-24T03:32:55.805Z,11.20
2023-03-24T03:35:31.367Z,11.30
2023-03-24T03:38:22.044Z,11.40
2023-03-24T03:40:59.400Z,11.30
2023-03-24T03:43:27.837Z,11.40
2023-03-24T03:45:55.428Z,11.40
2023-03-24T03:48:26.325Z,11.50
2023-03-24T03:51:06.289Z,11.60
2023-03-24T03:53:50.313Z,11.70
2023-03-24T03:56:23.491Z,11.80
2023-03-24T03:58:50.975Z,11.70
2023-03-24T04:01:21.583Z,11.70
2023-03-24T04:03:53.243Z,11.80
2023-03-24T04:06:46.053Z,11.70
2023-03-24T04:09:24.327Z,11.70
2023-03-24T04:12:11.312Z,11.70
2023-03-24T04:14:58.744Z,11.70
2023-03-24T04:17:49.958Z,11.70
2023-03-24T04:20:38.273Z,11.70
2023-03-24T04:23:34.316Z,11.80
2023-03-24T04:26:14.730Z,11.80
2023-03-24T04:29:04.666Z,11.70
2023-03-24T04:32:02.357Z,11.80
2023-03-24T04:34:36.076Z,11.90
2023-03-24T04:37:12.541Z,11.90
2023-03-24T04:39:42.994Z,11.90
2023-03-24T04:42:20.384Z,11.90
2023-03-24T04:44:51.317Z,11.90
2023-03-24T04:47:24.328Z,11.90
2023-03-24T04:49:50.996Z,11.90
2023-03-24T04:52:18.069Z,11.90
2023-03-24T04:54:45.139Z,11.90
2023-03-24T04:57:11.806Z,11.90
2023-03-24T04:59:38.441Z,11.90
2023-03-24T05:02:05.591Z,11.90
2023-03-24T05:04:37.303Z,11.90
2023-03-24T05:07:05.062Z,11.80
2023-03-24T05:09:31.936Z,11.90
2023-03-24T05:12:00.446Z,11.90
2023-03-24T05:14:28.475Z,11.90
2023-03-24T05:16:55.176Z,11.90
2023-03-24T05:19:21.837Z,11.90
2023-03-24T05:21:48.815Z,11.90
2023-03-24T05:24:15.486Z,11.90
2023-03-24T05:26:42.124Z,11.90
2023-03-24T05:29:08.762Z,12.00
2023-03-24T05:31:35.644Z,12.00
2023-03-24T05:34:02.371Z,12.00
2023-03-24T05:36:29.011Z,12.00
2023-03-24T05:38:55.918Z,12.00
2023-03-24T05:41:22.618Z,11.90
2023-03-24T05:43:49.404Z,11.80
2023-03-24T05:46:16.255Z,11.80
2023-03-24T05:48:42.892Z,11.80
2023-03-24T05:51:09.720Z,11.80
2023-03-24T05:53:36.687Z,11.70
2023-03-24T05:56:03.331Z,11.70
2023-03-24T05:58:30.632Z,11.70
2023-03-24T06:00:57.290Z,11.70
2023-03-24T06:03:24.144Z,11.60
2023-03-24T06:05:50.949Z,11.60
2023-03-24T06:08:18.641Z,11.60
2023-03-24T06:10:45.474Z,11.60
2023-03-24T06:13:12.640Z,11.50
2023-03-24T06:15:39.692Z,11.50
2023-03-24T06:18:07.787Z,11.50
2023-03-24T06:20:36.146Z,11.40
2023-03-24T06:23:03.211Z,11.50
2023-03-24T06:25:30.086Z,11.40
2023-03-24T06:27:56.752Z,11.50
2023-03-24T06:30:23.586Z,11.40
2023-03-24T06:32:51.261Z,11.40
2023-03-24T06:35:18.215Z,11.50
2023-03-24T06:37:45.113Z,11.40
2023-03-24T06:40:14.708Z,11.50
2023-03-24T06:42:41.550Z,11.50
2023-03-24T06:45:10.023Z,11.40
2023-03-24T06:47:37.402Z,11.50
2023-03-24T06:50:05.540Z,11.50
2023-03-24T06:52:32.345Z,11.50
2023-03-24T06:54:59.074Z,11.60
2023-03-24T06:57:27.301Z,11.60
2023-03-24T06:59:54.345Z,11.60
2023-03-24T07:02:21.360Z,11.60
2023-03-24T07:04:49.005Z,11.60
2023-03-24T07:09:47.145Z,11.60
2023-03-24T07:12:14.781Z,11.60
2023-03-24T07:14:41.620Z,11.60
2023-03-24T07:17:08.264Z,11.60
2023-03-24T07:19:35.081Z,11.60
2023-03-24T07:22:01.882Z,11.70
2023-03-24T07:24:30.620Z,11.60
2023-03-24T07:26:58.471Z,11.50
2023-03-24T07:29:25.341Z,11.60
2023-03-24T07:31:53.292Z,11.60
2023-03-24T07:34:21.227Z,11.70
2023-03-24T07:36:48.318Z,11.50
2023-03-24T07:39:25.469Z,11.50
2023-03-24T07:41:52.258Z,11.50
2023-03-24T07:44:21.432Z,11.50
2023-03-24T07:46:51.287Z,11.40
2023-03-24T07:49:21.501Z,11.50
2023-03-24T07:51:48.377Z,11.60
2023-03-24T07:54:45.736Z,11.50
2023-03-24T07:57:20.789Z,11.50
2023-03-24T08:00:16.345Z,11.40
2023-03-24T08:03:36.851Z,11.50
2023-03-24T08:06:30.368Z,11.50
2023-03-24T08:09:35.090Z,11.50
2023-03-24T08:12:20.511Z,11.50
2023-03-24T08:14:59.524Z,11.60
2023-03-24T08:17:35.218Z,11.50
2023-03-24T08:20:15.199Z,11.50
2023-03-24T08:23:01.949Z,11.50
2023-03-24T08:32:08.433Z,11.60
2023-03-24T08:34:52.764Z,11.60
2023-03-24T08:40:36.657Z,11.60
2023-03-24T08:46:55.551Z,11.60
2023-03-24T08:49:40.564Z,11.70
2023-03-24T08:52:08.530Z,11.70
2023-03-24T08:54:36.528Z,11.70
2023-03-24T08:57:07.787Z,11.70
2023-03-24T08:59:42.288Z,11.80
2023-03-24T09:02:17.309Z,11.70
2023-03-24T09:07:38.467Z,11.70
2023-03-24T09:10:12.492Z,11.80
2023-03-24T09:12:45.302Z,11.80
2023-03-24T09:15:17.710Z,11.80
2023-03-24T09:17:45.030Z,11.70
2023-03-24T09:20:22.997Z,11.80
2023-03-24T09:22:49.917Z,11.90
2023-03-24T09:25:19.550Z,12.10
2023-03-24T09:27:49.765Z,12.00
2023-03-24T09:30:18.451Z,12.10
2023-03-24T09:32:46.216Z,12.10
2023-03-24T09:35:14.244Z,12.20
2023-03-24T09:37:43.192Z,12.20
2023-03-24T09:40:28.958Z,12.30
2023-03-24T09:43:10.210Z,12.40
2023-03-24T09:45:57.661Z,12.50
2023-03-24T09:48:52.171Z,12.70
2023-03-24T09:51:27.211Z,12.70
2023-03-24T09:54:12.969Z,12.80
2023-03-24T09:56:44.029Z,12.80
2023-03-24T09:59:19.285Z,12.90
2023-03-24T10:01:47.619Z,13.20
2023-03-24T10:04:20.427Z,13.50
2023-03-24T10:06:53.288Z,13.70
2023-03-24T10:09:24.833Z,13.80
2023-03-24T10:12:14.564Z,14.00
2023-03-24T10:14:55.628Z,14.10
2023-03-24T10:17:36.659Z,14.10
2023-03-24T10:20:03.533Z,14.00
2023-03-24T10:23:08.680Z,14.00
2023-03-24T10:25:53.949Z,14.40
2023-03-24T10:28:27.225Z,14.40
2023-03-24T10:30:57.682Z,14.30
2023-03-24T10:33:24.873Z,14.40
2023-03-24T10:35:57.063Z,14.60
2023-03-24T10:38:24.540Z,14.60
2023-03-24T10:40:55.514Z,14.70
2023-03-24T10:43:25.147Z,14.60
2023-03-24T10:45:57.387Z,14.50
2023-03-24T10:48:47.397Z,14.50
2023-03-24T10:51:36.742Z,14.40
2023-03-24T10:54:17.949Z,14.40
2023-03-24T10:56:50.933Z,14.30
2023-03-24T10:59:20.796Z,14.20
2023-03-24T11:01:47.780Z,14.30
2023-03-24T11:04:17.413Z,14.30
2023-03-24T11:07:06.388Z,14.30
2023-03-24T11:09:45.156Z,14.40
2023-03-24T11:12:26.713Z,14.40
2023-03-24T11:15:17.672Z,14.50
2023-03-24T11:17:59.988Z,14.70
2023-03-24T11:20:49.007Z,14.70
2023-03-24T11:23:28.202Z,14.90
2023-03-24T11:26:14.493Z,14.80
2023-03-24T11:28:53.451Z,14.80
2023-03-24T11:31:26.163Z,14.90
2023-03-24T11:33:58.087Z,14.90
2023-03-24T11:36:31.157Z,14.80
2023-03-24T11:39:25.592Z,15.00
2023-03-24T11:42:01.847Z,15.00
2023-03-24T11:44:50.056Z,14.80
2023-03-24T11:47:36.369Z,14.70
2023-03-24T11:50:12.163Z,14.60
2023-03-24T11:52:53.562Z,14.50
2023-03-24T11:55:43.112Z,14.50
2023-03-24T11:58:31.517Z,14.50
2023-03-24T12:01:06.320Z,14.50
2023-03-24T12:03:48.796Z,14.50
2023-03-24T12:06:32.485Z,14.50
2023-03-24T12:09:04.719Z,14.60
2023-03-24T12:11:48.083Z,14.50
2023-03-24T12:14:25.724Z,14.40
2023-03-24T12:17:04.232Z,14.30
2023-03-24T12:20:06.088Z,14.30
2023-03-24T12:22:43.369Z,14.30
2023-03-24T12:25:32.710Z,14.30
2023-03-24T12:28:22.852Z,14.40
2023-03-24T12:31:11.997Z,14.40
2023-03-24T12:33:45.810Z,14.40
2023-03-24T12:36:15.431Z,14.30
2023-03-24T12:38:42.070Z,14.30
2023-03-24T12:41:14.473Z,14.30
2023-03-24T12:44:23.793Z,14.30
2023-03-24T12:47:02.557Z,14.30
2023-03-24T12:49:32.381Z,14.30
2023-03-24T12:52:23.253Z,14.30
2023-03-24T12:55:08.336Z,14.30
2023-03-24T12:57:42.817Z,14.20
2023-03-24T13:00:27.227Z,14.20
2023-03-24T13:02:59.362Z,14.20
2023-03-24T13:05:32.528Z,14.20
2023-03-24T13:08:11.293Z,14.20
2023-03-24T13:10:40.594Z,14.20
2023-03-24T13:13:22.517Z,14.20
2023-03-24T13:15:56.370Z,14.30
2023-03-24T13:18:34.627Z,14.30
2023-03-24T13:21:07.374Z,14.30
2023-03-24T13:23:56.677Z,14.20
2023-03-24T13:26:38.955Z,14.20
2023-03-24T13:29:24.481Z,14.10
2023-03-24T13:31:54.226Z,14.10
2023-03-24T13:34:40.954Z,14.10
2023-03-24T13:37:16.438Z,14.00
2023-03-24T13:39:46.137Z,14.00
2023-03-24T13:42:36.551Z,13.90
2023-03-24T13:45:07.306Z,13.90
2023-03-24T13:47:49.655Z,13.80
2023-03-24T13:50:17.710Z,13.80
2023-03-24T13:52:48.065Z,13.70
2023-03-24T13:55:28.318Z,13.80
2023-03-24T13:58:10.638Z,13.70
2023-03-24T14:01:06.613Z,13.70
2023-03-24T14:03:40.594Z,13.60
2023-03-24T14:06:18.217Z,13.60
2023-03-24T14:08:55.989Z,13.60
2023-03-24T14:11:31.756Z,13.60
2023-03-24T14:14:13.761Z,13.60
2023-03-24T14:17:03.434Z,13.60
2023-03-24T14:19:41.784Z,13.60
2023-03-24T14:22:27.262Z,13.60
2023-03-24T14:25:21.958Z,13.60
2023-03-24T14:27:51.321Z,13.60
2023-03-24T14:30:25.148Z,13.60
2023-03-24T14:33:02.785Z,13.60
2023-03-24T14:35:46.796Z,13.70
2023-03-24T14:38:17.608Z,13.70
2023-03-24T14:40:48.625Z,13.60
2023-03-24T14:43:28.212Z,13.70
2023-03-24T14:45:57.971Z,13.60
2023-03-24T14:48:40.423Z,13.60
2023-03-24T14:51:21.048Z,13.50
2023-03-24T14:53:47.836Z,13.50
2023-03-24T14:56:17.005Z,13.50
2023-03-24T14:58:48.857Z,13.40
2023-03-24T15:01:17.426Z,13.30
2023-03-24T15:04:00.593Z,13.20
2023-03-24T15:06:27.561Z,13.20
2023-03-24T15:08:58.448Z,13.20
2023-03-24T15:11:37.152Z,13.10
2023-03-24T15:14:14.571Z,13.10
2023-03-24T15:16:41.511Z,13.20
2023-03-24T15:19:26.888Z,13.30
2023-03-24T15:22:03.311Z,13.10
2023-03-24T15:24:36.082Z,13.10
2023-03-24T15:27:06.562Z,13.10
2023-03-24T15:29:37.421Z,13.10
2023-03-24T15:32:05.451Z,13.10
2023-03-24T15:34:36.616Z,13.10
2023-03-24T15:37:06.017Z,13.10
2023-03-24T15:39:38.098Z,13.10
2023-03-24T15:42:13.985Z,13.10
2023-03-24T15:44:41.808Z,13.00
2023-03-24T15:47:21.262Z,12.90
2023-03-24T15:49:56.255Z,12.90
2023-03-24T15:52:35.378Z,12.80
2023-03-24T15:55:22.108Z,12.70
2023-03-24T15:57:48.814Z,12.50
2023-03-24T16:00:24.237Z,12.30
2023-03-24T16:02:53.771Z,12.30
2023-03-24T16:05:32.212Z,12.20
2023-03-24T16:08:04.672Z,12.20
2023-03-24T16:10:45.717Z,12.20
2023-03-24T16:13:17.288Z,12.10
2023-03-24T16:15:56.555Z,12.00
2023-03-24T16:18:36.361Z,12.00
2023-03-24T16:21:17.043Z,12.00
2023-03-24T16:23:45.041Z,12.00
2023-03-24T16:26:46.551Z,12.00
2023-03-24T16:29:19.130Z,12.00
2023-03-24T16:31:53.095Z,12.00
2023-03-24T16:34:21.804Z,12.00
2023-03-24T16:36:51.320Z,12.00
2023-03-24T16:39:20.526Z,12.10
2023-03-24T16:41:47.596Z,12.00
2023-03-24T16:44:14.604Z,12.00
2023-03-24T16:46:42.149Z,12.00
2023-03-24T16:49:13.800Z,12.00
2023-03-24T16:51:40.921Z,12.00
2023-03-24T16:54:09.098Z,11.90
2023-03-24T16:56:36.955Z,12.00
2023-03-24T16:59:04.353Z,12.00
2023-03-24T17:01:37.749Z,11.90
2023-03-24T17:04:10.600Z,11.90
2023-03-24T17:06:40.357Z,11.90
2023-03-24T17:09:08.172Z,11.90
2023-03-24T17:11:47.982Z,11.80
2023-03-24T17:14:15.018Z,11.80
2023-03-24T17:16:44.120Z,11.80
2023-03-24T17:19:13.260Z,11.80
2023-03-24T17:21:50.230Z,11.80
2023-03-24T17:24:17.285Z,11.70
2023-03-24T17:26:43.954Z,11.70
2023-03-24T17:29:13.070Z,11.60
2023-03-24T17:31:40.505Z,11.60
2023-03-24T17:34:21.215Z,11.60
2023-03-24T17:36:50.354Z,11.60
2023-03-24T17:39:18.535Z,11.60
2023-03-24T17:41:45.595Z,11.60
2023-03-24T17:44:12.435Z,11.50
2023-03-24T17:46:39.233Z,11.50
2023-03-24T17:49:06.345Z,11.40
2023-03-24T17:51:33.404Z,11.40
2023-03-24T17:54:00.725Z,11.30
2023-03-24T17:56:27.536Z,11.30
2023-03-24T17:58:55.032Z,11.30
2023-03-24T18:01:22.036Z,11.30
2023-03-24T18:03:49.801Z,11.20
2023-03-24T18:06:17.000Z,11.20
2023-03-24T18:08:43.940Z,11.10
2023-03-24T18:11:13.121Z,11.10
2023-03-24T18:13:40.032Z,11.10
2023-03-24T18:16:19.803Z,11.00
2023-03-24T18:18:48.462Z,11.00
2023-03-24T18:21:15.425Z,11.00
2023-03-24T18:23:42.291Z,10.90
2023-03-24T18:26:09.099Z,10.90
2023-03-24T18:28:37.827Z,10.90
2023-03-24T18:31:15.783Z,10.90
2023-03-24T18:33:45.765Z,10.80
2023-03-24T18:36:16.558Z,10.80
2023-03-24T18:38:44.144Z,10.70
2023-03-24T18:41:13.025Z,10.80
2023-03-24T18:43:47.545Z,10.80
2023-03-24T18:46:15.359Z,10.70
2023-03-24T18:48:43.141Z,10.70
2023-03-24T18:51:11.310Z,10.90
2023-03-24T18:53:38.574Z,10.70
2023-03-24T18:56:06.547Z,10.60
2023-03-24T18:58:33.797Z,10.60
2023-03-24T19:01:09.188Z,10.50
2023-03-24T19:03:38.677Z,10.50
2023-03-24T19:06:07.425Z,10.50
2023-03-24T19:08:37.922Z,10.50
2023-03-24T19:11:05.465Z,10.50
2023-03-24T19:13:32.711Z,10.50
2023-03-24T19:16:00.109Z,10.40
2023-03-24T19:18:27.085Z,10.40
2023-03-24T19:20:58.318Z,10.30
2023-03-24T19:23:26.310Z,10.30
2023-03-24T19:25:55.041Z,10.30
2023-03-24T19:28:27.176Z,10.20
2023-03-24T19:30:53.875Z,10.20
2023-03-24T19:33:20.592Z,10.20
2023-03-24T19:35:48.919Z,10.20
2023-03-24T19:38:17.114Z,10.20
2023-03-24T19:40:44.911Z,10.10
2023-03-24T19:43:11.785Z,10.10
2023-03-24T19:45:42.825Z,10.10
2023-03-24T19:48:10.728Z,10.00
2023-03-24T19:50:37.795Z,10.00
2023-03-24T19:53:04.603Z,9.90
2023-03-24T19:55:31.519Z,10.00
2023-03-24T19:57:59.597Z,9.80
2023-03-24T20:00:26.752Z,9.80
2023-03-24T20:02:53.757Z,9.70
2023-03-24T20:05:20.585Z,9.70
2023-03-24T20:07:47.496Z,9.70
2023-03-24T20:10:14.354Z,9.70
2023-03-24T20:12:41.617Z,9.70
2023-03-24T20:15:08.725Z,9.70
2023-03-24T20:17:37.608Z,9.70
2023-03-24T20:20:07.298Z,9.60
2023-03-24T20:22:41.907Z,9.60
2023-03-24T20:25:09.985Z,9.60
2023-03-24T20:27:37.002Z,9.50
2023-03-24T20:30:05.439Z,9.50
2023-03-24T20:32:32.294Z,9.50
2023-03-24T20:34:58.952Z,9.40
2023-03-24T20:37:27.679Z,9.40
2023-03-24T20:39:54.441Z,9.40
2023-03-24T20:42:24.164Z,9.30
2023-03-24T20:44:53.234Z,9.30
2023-03-24T20:47:19.960Z,9.30
2023-03-24T20:49:46.899Z,9.20
2023-03-24T20:52:14.319Z,9.10
2023-03-24T20:54:41.698Z,9.20
2023-03-24T20:57:12.841Z,9.10
2023-03-24T20:59:39.796Z,9.20
2023-03-24T21:02:09.865Z,9.10
2023-03-24T21:04:36.629Z,9.10
2023-03-24T21:07:03.404Z,9.10
2023-03-24T21:09:30.049Z,9.00
2023-03-24T21:11:56.725Z,9.00
2023-03-24T21:14:23.512Z,8.90
2023-03-24T21:16:50.799Z,8.80
2023-03-24T21:19:18.630Z,8.70
2023-03-24T21:21:49.349Z,8.70
2023-03-24T21:24:17.571Z,8.60
2023-03-24T21:26:46.218Z,8.70
2023-03-24T21:29:13.338Z,8.70
2023-03-24T21:31:41.721Z,8.70
2023-03-24T21:34:08.652Z,8.70
2023-03-24T21:36:38.577Z,8.70
2023-03-24T21:39:07.736Z,8.80
2023-03-24T21:41:34.659Z,8.80
2023-03-24T21:44:01.766Z,8.80
2023-03-24T21:46:28.585Z,8.90
2023-03-24T21:48:59.416Z,8.90
2023-03-24T21:51:34.166Z,8.90
2023-03-24T21:54:04.404Z,8.90
2023-03-24T21:56:33.060Z,8.90
2023-03-24T21:59:00.320Z,8.90
2023-03-24T22:01:27.429Z,8.90
2023-03-24T22:03:54.772Z,8.90
2023-03-24T22:06:22.941Z,8.90
2023-03-24T22:08:50.546Z,8.90
2023-03-24T22:11:19.013Z,8.80
2023-03-24T22:13:46.603Z,8.80
2023-03-24T22:16:13.815Z,8.80
2023-03-24T22:18:40.914Z,8.80
2023-03-24T22:21:09.192Z,8.80
2023-03-24T22:23:40.296Z,8.80
2023-03-24T22:26:10.731Z,8.70
2023-03-24T22:28:38.928Z,8.70
2023-03-24T22:31:16.905Z,8.70
2023-03-24T22:33:44.566Z,8.70
2023-03-24T22:36:11.628Z,8.70
2023-03-24T22:38:38.491Z,8.70
2023-03-24T22:41:07.443Z,8.70
2023-03-24T22:43:35.512Z,8.70
2023-03-24T22:46:02.875Z,8.70
2023-03-24T22:48:29.803Z,8.70
2023-03-24T22:50:56.593Z,8.70
2023-03-24T22:53:23.555Z,8.70
2023-03-24T22:55:51.783Z,8.70
2023-03-24T22:58:19.353Z,8.70
2023-03-24T23:00:48.993Z,8.70
2023-03-24T23:03:16.172Z,8.60
2023-03-24T23:05:45.661Z,8.60
2023-03-24T23:08:15.053Z,8.60
2023-03-24T23:10:43.481Z,8.50
2023-03-24T23:13:10.862Z,8.40
2023-03-24T23:15:42.532Z,8.40
2023-03-24T23:18:10.358Z,8.40
2023-03-24T23:20:37.600Z,8.30
2023-03-24T23:23:06.569Z,8.30
2023-03-24T23:25:38.612Z,8.30
2023-03-24T23:28:05.663Z,8.30
2023-03-24T23:30:32.755Z,8.40
2023-03-24T23:32:59.529Z,8.30
2023-03-24T23:35:26.580Z,8.30
2023-03-24T23:37:53.302Z,8.30
2023-03-24T23:40:20.141Z,8.30
2023-03-24T23:42:48.745Z,8.30
2023-03-24T23:45:20.017Z,8.20
2023-03-24T23:47:50.380Z,8.20
2023-03-24T23:50:20.585Z,8.20
2023-03-24T23:52:47.710Z,8.20
2023-03-24T23:55:18.162Z,8.30
2023-03-24T23:57:46.731Z,8.30
